Terminal Aerodrome Forecast
Issued by NWS

Home | Current Version | Previous Version | Text Only | Print | Product List | Glossary On
Versions: 1 2 3 4 5 6 7 8 9 10 11 12 13
260
FTUS43 KEAX 201120
TAFMKC
TAF
KMKC 201120Z 2012/2112 23006KT P6SM SKC
     FM201700 35006KT P6SM SCT250
     FM202000 02006KT P6SM FEW250
     FM210200 05006KT P6SM SCT250=

USA.gov is the U.S. government's official web portal to all federal, state and local government web resources and services.